sensor_id;sensor_type;location;lat;lon;timestamp;temperature;humidity
13251;DHT22;6692;50.710;7.180;2023-07-29T00:00:39;20.90;99.90
13251;DHT22;6692;50.710;7.180;2023-07-29T00:02:40;20.90;99.90
13251;DHT22;6692;50.710;7.180;2023-07-29T00:04:41;20.90;99.90
13251;DHT22;6692;50.710;7.180;2023-07-29T00:06:41;20.80;99.90
13251;DHT22;6692;50.710;7.180;2023-07-29T00:08:42;20.80;99.90
13251;DHT22;6692;50.710;7.180;2023-07-29T00:10:43;20.80;99.90
13251;DHT22;6692;50.710;7.180;2023-07-29T00:12:43;20.80;99.90
13251;DHT22;6692;50.710;7.180;2023-07-29T00:14:44;20.80;99.90
13251;DHT22;6692;50.710;7.180;2023-07-29T00:16:45;20.80;99.90
13251;DHT22;6692;50.710;7.180;2023-07-29T00:18:46;20.80;99.90
13251;DHT22;6692;50.710;7.180;2023-07-29T00:20:47;20.80;99.90
13251;DHT22;6692;50.710;7.180;2023-07-29T00:22:48;20.80;99.90
13251;DHT22;6692;50.710;7.180;2023-07-29T00:24:52;20.80;99.90
13251;DHT22;6692;50.710;7.180;2023-07-29T00:26:52;20.80;99.90
13251;DHT22;6692;50.710;7.180;2023-07-29T00:28:53;20.90;99.90
13251;DHT22;6692;50.710;7.180;2023-07-29T00:30:54;20.90;99.90
13251;DHT22;6692;50.710;7.180;2023-07-29T00:32:55;20.90;99.90
13251;DHT22;6692;50.710;7.180;2023-07-29T00:34:56;20.90;99.90
13251;DHT22;6692;50.710;7.180;2023-07-29T00:36:57;20.90;99.90
13251;DHT22;6692;50.710;7.180;2023-07-29T00:38:58;20.90;99.90
13251;DHT22;6692;50.710;7.180;2023-07-29T00:41:00;20.90;99.90
13251;DHT22;6692;50.710;7.180;2023-07-29T00:43:00;20.80;99.90
13251;DHT22;6692;50.710;7.180;2023-07-29T00:45:02;20.80;99.90
13251;DHT22;6692;50.710;7.180;2023-07-29T00:47:03;20.80;99.90
13251;DHT22;6692;50.710;7.180;2023-07-29T00:49:03;20.80;99.90
13251;DHT22;6692;50.710;7.180;2023-07-29T00:51:04;20.80;99.90
13251;DHT22;6692;50.710;7.180;2023-07-29T00:53:05;20.70;99.90
13251;DHT22;6692;50.710;7.180;2023-07-29T00:55:06;20.70;99.90
13251;DHT22;6692;50.710;7.180;2023-07-29T00:57:08;20.60;99.90
13251;DHT22;6692;50.710;7.180;2023-07-29T00:59:08;20.60;99.90
13251;DHT22;6692;50.710;7.180;2023-07-29T01:01:08;20.60;99.90
13251;DHT22;6692;50.710;7.180;2023-07-29T01:03:09;20.60;99.90
13251;DHT22;6692;50.710;7.180;2023-07-29T01:05:11;20.60;99.90
13251;DHT22;6692;50.710;7.180;2023-07-29T01:07:18;20.60;99.90
13251;DHT22;6692;50.710;7.180;2023-07-29T01:10:26;20.60;99.90
13251;DHT22;6692;50.710;7.180;2023-07-29T01:11:41;20.70;99.90
13251;DHT22;6692;50.710;7.180;2023-07-29T01:13:44;20.70;99.90
13251;DHT22;6692;50.710;7.180;2023-07-29T01:15:45;20.70;99.90
13251;DHT22;6692;50.710;7.180;2023-07-29T01:17:46;20.70;99.90
13251;DHT22;6692;50.710;7.180;2023-07-29T01:19:58;20.70;99.90
13251;DHT22;6692;50.710;7.180;2023-07-29T01:21:59;20.80;99.90
13251;DHT22;6692;50.710;7.180;2023-07-29T01:23:59;20.80;99.90
13251;DHT22;6692;50.710;7.180;2023-07-29T01:26:00;20.80;99.90
13251;DHT22;6692;50.710;7.180;2023-07-29T01:28:01;20.80;99.90
13251;DHT22;6692;50.710;7.180;2023-07-29T01:30:03;20.80;99.90
13251;DHT22;6692;50.710;7.180;2023-07-29T01:32:06;20.80;99.90
13251;DHT22;6692;50.710;7.180;2023-07-29T01:34:06;20.80;99.90
13251;DHT22;6692;50.710;7.180;2023-07-29T01:36:08;20.80;99.90
13251;DHT22;6692;50.710;7.180;2023-07-29T01:38:17;20.70;99.90
13251;DHT22;6692;50.710;7.180;2023-07-29T01:40:18;20.70;99.90
13251;DHT22;6692;50.710;7.180;2023-07-29T01:42:19;20.70;99.90
13251;DHT22;6692;50.710;7.180;2023-07-29T01:44:20;20.70;99.90
13251;DHT22;6692;50.710;7.180;2023-07-29T01:46:21;20.70;99.90
13251;DHT22;6692;50.710;7.180;2023-07-29T01:48:21;20.60;99.90
13251;DHT22;6692;50.710;7.180;2023-07-29T01:50:22;20.60;99.90
13251;DHT22;6692;50.710;7.180;2023-07-29T01:52:23;20.60;99.90
13251;DHT22;6692;50.710;7.180;2023-07-29T01:54:23;20.50;99.90
13251;DHT22;6692;50.710;7.180;2023-07-29T01:56:24;20.50;99.90
13251;DHT22;6692;50.710;7.180;2023-07-29T01:58:25;20.50;99.90
13251;DHT22;6692;50.710;7.180;2023-07-29T02:00:27;20.50;99.90
13251;DHT22;6692;50.710;7.180;2023-07-29T02:02:28;20.50;99.90
13251;DHT22;6692;50.710;7.180;2023-07-29T02:04:28;20.50;99.90
13251;DHT22;6692;50.710;7.180;2023-07-29T02:06:29;20.50;99.90
13251;DHT22;6692;50.710;7.180;2023-07-29T02:08:30;20.50;99.90
13251;DHT22;6692;50.710;7.180;2023-07-29T02:10:32;20.50;99.90
13251;DHT22;6692;50.710;7.180;2023-07-29T02:12:33;20.50;99.90
13251;DHT22;6692;50.710;7.180;2023-07-29T02:14:33;20.50;99.90
13251;DHT22;6692;50.710;7.180;2023-07-29T02:16:34;20.50;99.90
13251;DHT22;6692;50.710;7.180;2023-07-29T02:18:35;20.50;99.90
13251;DHT22;6692;50.710;7.180;2023-07-29T02:20:35;20.50;99.90
13251;DHT22;6692;50.710;7.180;2023-07-29T02:22:36;20.50;99.90
13251;DHT22;6692;50.710;7.180;2023-07-29T02:24:38;20.50;99.90
13251;DHT22;6692;50.710;7.180;2023-07-29T02:26:38;20.50;99.90
13251;DHT22;6692;50.710;7.180;2023-07-29T02:28:39;20.50;99.90
13251;DHT22;6692;50.710;7.180;2023-07-29T02:30:40;20.50;99.90
13251;DHT22;6692;50.710;7.180;2023-07-29T02:32:40;20.60;99.90
13251;DHT22;6692;50.710;7.180;2023-07-29T02:34:41;20.50;99.90
13251;DHT22;6692;50.710;7.180;2023-07-29T02:36:43;20.50;99.90
13251;DHT22;6692;50.710;7.180;2023-07-29T02:38:43;20.50;99.90
13251;DHT22;6692;50.710;7.180;2023-07-29T02:40:44;20.50;99.90
13251;DHT22;6692;50.710;7.180;2023-07-29T02:42:45;20.50;99.90
13251;DHT22;6692;50.710;7.180;2023-07-29T02:44:45;20.50;99.90
13251;DHT22;6692;50.710;7.180;2023-07-29T02:46:46;20.50;99.90
13251;DHT22;6692;50.710;7.180;2023-07-29T02:48:47;20.50;99.90
13251;DHT22;6692;50.710;7.180;2023-07-29T02:50:47;20.50;99.90
13251;DHT22;6692;50.710;7.180;2023-07-29T02:52:48;20.50;99.90
13251;DHT22;6692;50.710;7.180;2023-07-29T02:54:50;20.50;99.90
13251;DHT22;6692;50.710;7.180;2023-07-29T02:56:50;20.40;99.90
13251;DHT22;6692;50.710;7.180;2023-07-29T02:58:51;20.40;99.90
13251;DHT22;6692;50.710;7.180;2023-07-29T03:00:52;20.40;99.90
13251;DHT22;6692;50.710;7.180;2023-07-29T03:02:53;20.40;99.90
13251;DHT22;6692;50.710;7.180;2023-07-29T03:04:54;20.40;99.90
13251;DHT22;6692;50.710;7.180;2023-07-29T03:06:54;20.40;99.90
13251;DHT22;6692;50.710;7.180;2023-07-29T03:08:55;20.50;99.90
13251;DHT22;6692;50.710;7.180;2023-07-29T03:10:56;20.50;99.90
13251;DHT22;6692;50.710;7.180;2023-07-29T03:12:57;20.50;99.90
13251;DHT22;6692;50.710;7.180;2023-07-29T03:14:58;20.40;99.90
13251;DHT22;6692;50.710;7.180;2023-07-29T03:17:01;20.40;99.90
13251;DHT22;6692;50.710;7.180;2023-07-29T03:18:59;20.40;99.90
13251;DHT22;6692;50.710;7.180;2023-07-29T03:21:01;20.30;99.90
13251;DHT22;6692;50.710;7.180;2023-07-29T03:23:02;20.30;99.90
13251;DHT22;6692;50.710;7.180;2023-07-29T03:25:03;20.30;99.90
13251;DHT22;6692;50.710;7.180;2023-07-29T03:27:04;20.30;99.90
13251;DHT22;6692;50.710;7.180;2023-07-29T03:29:05;20.30;99.90
13251;DHT22;6692;50.710;7.180;2023-07-29T03:31:06;20.20;99.90
13251;DHT22;6692;50.710;7.180;2023-07-29T03:33:06;20.20;99.90
13251;DHT22;6692;50.710;7.180;2023-07-29T03:35:08;20.10;99.90
13251;DHT22;6692;50.710;7.180;2023-07-29T03:37:09;20.00;99.90
13251;DHT22;6692;50.710;7.180;2023-07-29T03:39:11;19.90;99.90
13251;DHT22;6692;50.710;7.180;2023-07-29T03:41:11;19.90;99.90
13251;DHT22;6692;50.710;7.180;2023-07-29T03:43:12;19.80;99.90
13251;DHT22;6692;50.710;7.180;2023-07-29T03:45:13;19.70;99.90
13251;DHT22;6692;50.710;7.180;2023-07-29T03:47:14;19.60;99.90
13251;DHT22;6692;50.710;7.180;2023-07-29T03:49:14;19.60;99.90
13251;DHT22;6692;50.710;7.180;2023-07-29T03:51:15;19.60;99.90
13251;DHT22;6692;50.710;7.180;2023-07-29T03:53:16;19.60;99.90
13251;DHT22;6692;50.710;7.180;2023-07-29T03:55:17;19.60;99.90
13251;DHT22;6692;50.710;7.180;2023-07-29T03:57:17;19.70;99.90
13251;DHT22;6692;50.710;7.180;2023-07-29T03:59:18;19.70;99.90
13251;DHT22;6692;50.710;7.180;2023-07-29T04:01:19;19.70;99.90
13251;DHT22;6692;50.710;7.180;2023-07-29T04:03:19;19.80;99.90
13251;DHT22;6692;50.710;7.180;2023-07-29T04:05:20;19.80;99.90
13251;DHT22;6692;50.710;7.180;2023-07-29T04:07:22;19.90;99.90
13251;DHT22;6692;50.710;7.180;2023-07-29T04:09:22;19.80;99.90
13251;DHT22;6692;50.710;7.180;2023-07-29T04:11:24;19.90;99.90
13251;DHT22;6692;50.710;7.180;2023-07-29T04:13:25;20.00;99.90
13251;DHT22;6692;50.710;7.180;2023-07-29T04:15:27;20.00;99.90
13251;DHT22;6692;50.710;7.180;2023-07-29T04:17:28;20.00;99.90
13251;DHT22;6692;50.710;7.180;2023-07-29T04:19:28;20.00;99.90
13251;DHT22;6692;50.710;7.180;2023-07-29T04:21:29;20.00;99.90
13251;DHT22;6692;50.710;7.180;2023-07-29T04:23:30;20.00;99.90
13251;DHT22;6692;50.710;7.180;2023-07-29T04:25:31;20.00;99.90
13251;DHT22;6692;50.710;7.180;2023-07-29T04:27:32;20.00;99.90
13251;DHT22;6692;50.710;7.180;2023-07-29T04:29:33;20.00;99.90
13251;DHT22;6692;50.710;7.180;2023-07-29T04:31:34;20.00;99.90
13251;DHT22;6692;50.710;7.180;2023-07-29T04:33:35;20.00;99.90
13251;DHT22;6692;50.710;7.180;2023-07-29T04:35:36;20.00;99.90
13251;DHT22;6692;50.710;7.180;2023-07-29T04:37:36;20.00;99.90
13251;DHT22;6692;50.710;7.180;2023-07-29T04:39:37;20.00;99.90
13251;DHT22;6692;50.710;7.180;2023-07-29T04:41:38;20.00;99.90
13251;DHT22;6692;50.710;7.180;2023-07-29T04:43:39;20.00;99.90
13251;DHT22;6692;50.710;7.180;2023-07-29T04:45:43;20.00;99.90
13251;DHT22;6692;50.710;7.180;2023-07-29T04:47:44;20.00;99.90
13251;DHT22;6692;50.710;7.180;2023-07-29T04:49:45;20.00;99.90
13251;DHT22;6692;50.710;7.180;2023-07-29T04:51:45;20.00;99.90
13251;DHT22;6692;50.710;7.180;2023-07-29T04:53:46;20.00;99.90
13251;DHT22;6692;50.710;7.180;2023-07-29T04:55:47;20.00;99.90
13251;DHT22;6692;50.710;7.180;2023-07-29T04:57:47;20.00;99.90
13251;DHT22;6692;50.710;7.180;2023-07-29T04:59:49;20.00;99.90
13251;DHT22;6692;50.710;7.180;2023-07-29T05:01:50;20.00;99.90
13251;DHT22;6692;50.710;7.180;2023-07-29T05:03:51;20.00;99.90
13251;DHT22;6692;50.710;7.180;2023-07-29T05:05:51;20.10;99.90
13251;DHT22;6692;50.710;7.180;2023-07-29T05:07:52;20.10;99.90
13251;DHT22;6692;50.710;7.180;2023-07-29T05:09:53;20.10;99.90
13251;DHT22;6692;50.710;7.180;2023-07-29T05:11:53;20.10;99.90
13251;DHT22;6692;50.710;7.180;2023-07-29T05:13:54;20.10;99.90
13251;DHT22;6692;50.710;7.180;2023-07-29T05:15:55;20.10;99.90
13251;DHT22;6692;50.710;7.180;2023-07-29T05:17:56;20.20;99.90
13251;DHT22;6692;50.710;7.180;2023-07-29T05:19:56;20.20;99.90
13251;DHT22;6692;50.710;7.180;2023-07-29T05:21:57;20.20;99.90
13251;DHT22;6692;50.710;7.180;2023-07-29T05:23:58;20.20;99.90
13251;DHT22;6692;50.710;7.180;2023-07-29T05:25:59;20.20;99.90
13251;DHT22;6692;50.710;7.180;2023-07-29T05:27:59;20.20;99.90
13251;DHT22;6692;50.710;7.180;2023-07-29T05:30:00;20.30;99.90
13251;DHT22;6692;50.710;7.180;2023-07-29T05:32:01;20.30;99.90
13251;DHT22;6692;50.710;7.180;2023-07-29T05:34:02;20.50;99.90
13251;DHT22;6692;50.710;7.180;2023-07-29T05:36:04;20.60;99.90
13251;DHT22;6692;50.710;7.180;2023-07-29T05:38:05;20.60;99.90
13251;DHT22;6692;50.710;7.180;2023-07-29T05:40:07;20.60;99.90
13251;DHT22;6692;50.710;7.180;2023-07-29T05:42:07;20.60;99.90
13251;DHT22;6692;50.710;7.180;2023-07-29T05:44:08;20.60;99.90
13251;DHT22;6692;50.710;7.180;2023-07-29T05:46:09;20.60;99.90
13251;DHT22;6692;50.710;7.180;2023-07-29T05:48:09;20.60;99.90
13251;DHT22;6692;50.710;7.180;2023-07-29T05:50:10;20.50;99.90
13251;DHT22;6692;50.710;7.180;2023-07-29T05:52:11;20.50;99.90
13251;DHT22;6692;50.710;7.180;2023-07-29T05:54:12;20.50;99.90
13251;DHT22;6692;50.710;7.180;2023-07-29T05:56:14;20.50;99.90
13251;DHT22;6692;50.710;7.180;2023-07-29T05:58:15;20.40;99.90
13251;DHT22;6692;50.710;7.180;2023-07-29T06:00:15;20.50;99.90
13251;DHT22;6692;50.710;7.180;2023-07-29T06:02:16;20.50;99.90
13251;DHT22;6692;50.710;7.180;2023-07-29T06:04:17;20.50;99.90
13251;DHT22;6692;50.710;7.180;2023-07-29T06:06:18;20.50;99.90
13251;DHT22;6692;50.710;7.180;2023-07-29T06:08:19;20.50;99.90
13251;DHT22;6692;50.710;7.180;2023-07-29T06:10:20;20.50;99.90
13251;DHT22;6692;50.710;7.180;2023-07-29T06:12:21;20.60;99.90
13251;DHT22;6692;50.710;7.180;2023-07-29T06:14:22;20.60;99.90
13251;DHT22;6692;50.710;7.180;2023-07-29T06:16:23;20.60;99.90
13251;DHT22;6692;50.710;7.180;2023-07-29T06:18:24;20.60;99.90
13251;DHT22;6692;50.710;7.180;2023-07-29T06:20:24;20.60;99.90
13251;DHT22;6692;50.710;7.180;2023-07-29T06:22:26;20.60;99.90
13251;DHT22;6692;50.710;7.180;2023-07-29T06:24:26;20.60;99.90
13251;DHT22;6692;50.710;7.180;2023-07-29T06:26:27;20.70;99.90
13251;DHT22;6692;50.710;7.180;2023-07-29T06:28:29;20.80;99.90
13251;DHT22;6692;50.710;7.180;2023-07-29T06:30:29;20.80;99.90
13251;DHT22;6692;50.710;7.180;2023-07-29T06:32:30;20.80;99.90
13251;DHT22;6692;50.710;7.180;2023-07-29T06:34:31;20.90;99.90
13251;DHT22;6692;50.710;7.180;2023-07-29T06:36:32;20.90;99.90
13251;DHT22;6692;50.710;7.180;2023-07-29T06:38:33;20.90;99.90
13251;DHT22;6692;50.710;7.180;2023-07-29T06:40:34;20.90;99.90
13251;DHT22;6692;50.710;7.180;2023-07-29T06:42:34;21.00;99.90
13251;DHT22;6692;50.710;7.180;2023-07-29T06:44:36;21.00;99.90
13251;DHT22;6692;50.710;7.180;2023-07-29T06:46:37;21.00;99.90
13251;DHT22;6692;50.710;7.180;2023-07-29T06:48:38;21.00;99.90
13251;DHT22;6692;50.710;7.180;2023-07-29T06:50:39;21.00;99.90
13251;DHT22;6692;50.710;7.180;2023-07-29T06:52:40;21.10;99.90
13251;DHT22;6692;50.710;7.180;2023-07-29T06:54:41;21.10;99.90
13251;DHT22;6692;50.710;7.180;2023-07-29T06:56:41;21.10;99.90
13251;DHT22;6692;50.710;7.180;2023-07-29T06:58:42;21.10;99.90
13251;DHT22;6692;50.710;7.180;2023-07-29T07:00:44;21.10;99.90
13251;DHT22;6692;50.710;7.180;2023-07-29T07:02:45;21.10;99.90
13251;DHT22;6692;50.710;7.180;2023-07-29T07:04:45;21.20;99.90
13251;DHT22;6692;50.710;7.180;2023-07-29T07:06:46;21.20;99.90
13251;DHT22;6692;50.710;7.180;2023-07-29T07:08:47;21.30;99.90
13251;DHT22;6692;50.710;7.180;2023-07-29T07:10:47;21.30;99.90
13251;DHT22;6692;50.710;7.180;2023-07-29T07:12:49;21.60;99.90
13251;DHT22;6692;50.710;7.180;2023-07-29T07:14:50;21.60;99.90
13251;DHT22;6692;50.710;7.180;2023-07-29T07:16:50;21.80;99.90
13251;DHT22;6692;50.710;7.180;2023-07-29T07:18:52;21.90;99.90
13251;DHT22;6692;50.710;7.180;2023-07-29T07:20:52;21.90;99.90
13251;DHT22;6692;50.710;7.180;2023-07-29T07:22:54;21.60;99.90
13251;DHT22;6692;50.710;7.180;2023-07-29T07:24:55;21.30;99.90
13251;DHT22;6692;50.710;7.180;2023-07-29T07:26:56;21.30;99.90
13251;DHT22;6692;50.710;7.180;2023-07-29T07:28:57;21.10;99.90
13251;DHT22;6692;50.710;7.180;2023-07-29T07:30:57;21.20;99.90
13251;DHT22;6692;50.710;7.180;2023-07-29T07:32:58;21.30;99.90
13251;DHT22;6692;50.710;7.180;2023-07-29T07:34:59;21.40;99.90
13251;DHT22;6692;50.710;7.180;2023-07-29T07:37:00;21.40;99.90
13251;DHT22;6692;50.710;7.180;2023-07-29T07:39:00;21.40;99.90
13251;DHT22;6692;50.710;7.180;2023-07-29T07:41:01;21.50;99.90
13251;DHT22;6692;50.710;7.180;2023-07-29T07:43:02;21.70;99.90
13251;DHT22;6692;50.710;7.180;2023-07-29T07:45:03;21.70;99.90
13251;DHT22;6692;50.710;7.180;2023-07-29T07:47:04;21.70;99.90
13251;DHT22;6692;50.710;7.180;2023-07-29T07:49:05;21.70;99.90
13251;DHT22;6692;50.710;7.180;2023-07-29T07:51:11;21.70;99.90
13251;DHT22;6692;50.710;7.180;2023-07-29T07:53:11;21.70;99.90
13251;DHT22;6692;50.710;7.180;2023-07-29T07:55:12;21.80;99.90
13251;DHT22;6692;50.710;7.180;2023-07-29T07:57:13;21.90;99.90
13251;DHT22;6692;50.710;7.180;2023-07-29T07:59:13;22.00;99.90
13251;DHT22;6692;50.710;7.180;2023-07-29T08:01:14;22.10;99.90
13251;DHT22;6692;50.710;7.180;2023-07-29T08:03:15;22.20;99.90
13251;DHT22;6692;50.710;7.180;2023-07-29T08:05:15;22.30;99.90
13251;DHT22;6692;50.710;7.180;2023-07-29T08:07:17;22.30;99.90
13251;DHT22;6692;50.710;7.180;2023-07-29T08:09:18;22.30;99.90
13251;DHT22;6692;50.710;7.180;2023-07-29T08:11:18;22.50;99.90
13251;DHT22;6692;50.710;7.180;2023-07-29T08:13:19;22.40;99.90
13251;DHT22;6692;50.710;7.180;2023-07-29T08:15:20;22.40;99.90
13251;DHT22;6692;50.710;7.180;2023-07-29T08:17:20;22.30;99.90
13251;DHT22;6692;50.710;7.180;2023-07-29T08:19:21;22.20;99.90
13251;DHT22;6692;50.710;7.180;2023-07-29T08:21:22;22.00;99.90
13251;DHT22;6692;50.710;7.180;2023-07-29T08:23:23;21.80;99.90
13251;DHT22;6692;50.710;7.180;2023-07-29T08:25:23;21.60;99.90
13251;DHT22;6692;50.710;7.180;2023-07-29T08:27:24;21.50;99.90
13251;DHT22;6692;50.710;7.180;2023-07-29T08:29:25;21.50;99.90
13251;DHT22;6692;50.710;7.180;2023-07-29T08:31:26;21.40;99.90
13251;DHT22;6692;50.710;7.180;2023-07-29T08:33:27;21.60;99.90
13251;DHT22;6692;50.710;7.180;2023-07-29T08:35:27;21.70;99.90
13251;DHT22;6692;50.710;7.180;2023-07-29T08:37:28;21.80;99.90
13251;DHT22;6692;50.710;7.180;2023-07-29T08:39:29;21.90;99.90
13251;DHT22;6692;50.710;7.180;2023-07-29T08:41:31;21.90;99.90
13251;DHT22;6692;50.710;7.180;2023-07-29T08:43:31;22.00;99.90
13251;DHT22;6692;50.710;7.180;2023-07-29T08:45:33;22.10;99.90
13251;DHT22;6692;50.710;7.180;2023-07-29T08:47:33;22.20;99.90
13251;DHT22;6692;50.710;7.180;2023-07-29T08:49:33;22.20;99.90
13251;DHT22;6692;50.710;7.180;2023-07-29T08:51:34;22.10;99.90
13251;DHT22;6692;50.710;7.180;2023-07-29T08:53:35;22.00;99.90
13251;DHT22;6692;50.710;7.180;2023-07-29T08:55:35;21.90;99.90
13251;DHT22;6692;50.710;7.180;2023-07-29T08:57:37;21.50;99.90
13251;DHT22;6692;50.710;7.180;2023-07-29T08:59:38;21.50;99.90
13251;DHT22;6692;50.710;7.180;2023-07-29T09:01:39;21.30;99.90
13251;DHT22;6692;50.710;7.180;2023-07-29T09:03:40;21.20;99.90
13251;DHT22;6692;50.710;7.180;2023-07-29T09:05:41;21.20;99.90
13251;DHT22;6692;50.710;7.180;2023-07-29T09:07:41;21.20;99.90
13251;DHT22;6692;50.710;7.180;2023-07-29T09:09:42;21.10;99.90
13251;DHT22;6692;50.710;7.180;2023-07-29T09:11:43;21.20;99.90
13251;DHT22;6692;50.710;7.180;2023-07-29T09:13:43;21.10;99.90
13251;DHT22;6692;50.710;7.180;2023-07-29T09:15:45;21.00;99.90
13251;DHT22;6692;50.710;7.180;2023-07-29T09:17:45;20.90;99.90
13251;DHT22;6692;50.710;7.180;2023-07-29T09:19:48;20.80;99.90
13251;DHT22;6692;50.710;7.180;2023-07-29T09:21:49;20.70;99.90
13251;DHT22;6692;50.710;7.180;2023-07-29T09:23:50;20.70;99.90
13251;DHT22;6692;50.710;7.180;2023-07-29T09:25:50;20.70;99.90
13251;DHT22;6692;50.710;7.180;2023-07-29T09:27:51;20.60;99.90
13251;DHT22;6692;50.710;7.180;2023-07-29T09:29:52;20.60;99.90
13251;DHT22;6692;50.710;7.180;2023-07-29T09:31:52;20.70;99.90
13251;DHT22;6692;50.710;7.180;2023-07-29T09:33:56;20.80;99.90
13251;DHT22;6692;50.710;7.180;2023-07-29T09:35:57;20.90;99.90
13251;DHT22;6692;50.710;7.180;2023-07-29T09:37:57;21.10;99.90
13251;DHT22;6692;50.710;7.180;2023-07-29T09:39:58;21.20;99.90
13251;DHT22;6692;50.710;7.180;2023-07-29T09:41:59;21.20;99.90
13251;DHT22;6692;50.710;7.180;2023-07-29T09:44:01;21.40;99.90
13251;DHT22;6692;50.710;7.180;2023-07-29T09:46:01;21.40;99.90
13251;DHT22;6692;50.710;7.180;2023-07-29T09:48:02;21.50;99.90
13251;DHT22;6692;50.710;7.180;2023-07-29T09:50:02;21.70;99.90
13251;DHT22;6692;50.710;7.180;2023-07-29T09:52:04;21.80;99.90
13251;DHT22;6692;50.710;7.180;2023-07-29T09:54:05;21.90;99.90
13251;DHT22;6692;50.710;7.180;2023-07-29T09:56:05;21.90;99.90
13251;DHT22;6692;50.710;7.180;2023-07-29T09:58:06;22.00;99.90
13251;DHT22;6692;50.710;7.180;2023-07-29T10:00:07;22.10;99.90
13251;DHT22;6692;50.710;7.180;2023-07-29T10:02:16;22.10;99.90
13251;DHT22;6692;50.710;7.180;2023-07-29T10:04:17;22.00;99.90
13251;DHT22;6692;50.710;7.180;2023-07-29T10:06:17;22.00;99.90
13251;DHT22;6692;50.710;7.180;2023-07-29T10:08:19;22.00;99.90
13251;DHT22;6692;50.710;7.180;2023-07-29T10:10:20;22.00;99.90
13251;DHT22;6692;50.710;7.180;2023-07-29T10:12:20;22.10;99.90
13251;DHT22;6692;50.710;7.180;2023-07-29T10:14:22;22.30;99.90
13251;DHT22;6692;50.710;7.180;2023-07-29T10:16:22;22.30;99.90
13251;DHT22;6692;50.710;7.180;2023-07-29T10:18:23;22.30;99.90
13251;DHT22;6692;50.710;7.180;2023-07-29T10:20:24;22.20;99.90
13251;DHT22;6692;50.710;7.180;2023-07-29T10:22:27;22.00;99.90
13251;DHT22;6692;50.710;7.180;2023-07-29T10:24:30;21.90;99.90
13251;DHT22;6692;50.710;7.180;2023-07-29T10:26:26;22.00;99.90
13251;DHT22;6692;50.710;7.180;2023-07-29T10:28:27;21.90;99.90
13251;DHT22;6692;50.710;7.180;2023-07-29T10:30:28;22.00;99.90
13251;DHT22;6692;50.710;7.180;2023-07-29T10:32:28;22.10;99.90
13251;DHT22;6692;50.710;7.180;2023-07-29T10:34:29;22.20;99.90
13251;DHT22;6692;50.710;7.180;2023-07-29T10:36:30;22.20;99.90
13251;DHT22;6692;50.710;7.180;2023-07-29T10:38:30;22.30;99.90
13251;DHT22;6692;50.710;7.180;2023-07-29T10:40:44;22.20;99.90
13251;DHT22;6692;50.710;7.180;2023-07-29T10:44:57;22.20;99.90
13251;DHT22;6692;50.710;7.180;2023-07-29T10:46:57;22.00;99.90
13251;DHT22;6692;50.710;7.180;2023-07-29T10:48:59;21.60;99.90
13251;DHT22;6692;50.710;7.180;2023-07-29T10:53:13;21.10;99.90
13251;DHT22;6692;50.710;7.180;2023-07-29T10:55:25;21.10;99.90
13251;DHT22;6692;50.710;7.180;2023-07-29T10:57:35;20.90;99.90
13251;DHT22;6692;50.710;7.180;2023-07-29T10:59:34;20.90;99.90
13251;DHT22;6692;50.710;7.180;2023-07-29T11:01:35;20.80;99.90
13251;DHT22;6692;50.710;7.180;2023-07-29T11:03:36;20.60;99.90
13251;DHT22;6692;50.710;7.180;2023-07-29T11:05:45;20.60;99.90
13251;DHT22;6692;50.710;7.180;2023-07-29T11:07:46;20.50;99.90
13251;DHT22;6692;50.710;7.180;2023-07-29T11:09:52;20.50;99.90
13251;DHT22;6692;50.710;7.180;2023-07-29T11:11:52;20.50;99.90
13251;DHT22;6692;50.710;7.180;2023-07-29T11:13:52;20.60;99.90
13251;DHT22;6692;50.710;7.180;2023-07-29T11:15:53;20.80;99.90
13251;DHT22;6692;50.710;7.180;2023-07-29T11:17:58;21.00;99.90
13251;DHT22;6692;50.710;7.180;2023-07-29T11:19:57;21.20;99.90
13251;DHT22;6692;50.710;7.180;2023-07-29T11:21:58;21.40;99.90
13251;DHT22;6692;50.710;7.180;2023-07-29T11:23:59;21.50;99.90
13251;DHT22;6692;50.710;7.180;2023-07-29T11:25:59;21.50;99.90
13251;DHT22;6692;50.710;7.180;2023-07-29T11:28:00;21.70;99.90
13251;DHT22;6692;50.710;7.180;2023-07-29T11:30:02;21.80;99.90
13251;DHT22;6692;50.710;7.180;2023-07-29T11:32:02;21.80;99.90
13251;DHT22;6692;50.710;7.180;2023-07-29T11:34:06;21.90;99.90
13251;DHT22;6692;50.710;7.180;2023-07-29T11:36:04;21.90;99.90
13251;DHT22;6692;50.710;7.180;2023-07-29T11:38:04;21.80;99.90
13251;DHT22;6692;50.710;7.180;2023-07-29T11:40:06;21.90;99.90
13251;DHT22;6692;50.710;7.180;2023-07-29T11:42:07;21.90;99.90
13251;DHT22;6692;50.710;7.180;2023-07-29T11:44:09;22.10;99.90
13251;DHT22;6692;50.710;7.180;2023-07-29T11:46:08;22.30;99.90
13251;DHT22;6692;50.710;7.180;2023-07-29T11:48:08;22.50;99.90
13251;DHT22;6692;50.710;7.180;2023-07-29T11:50:10;22.70;99.90
13251;DHT22;6692;50.710;7.180;2023-07-29T11:52:10;22.80;99.90
13251;DHT22;6692;50.710;7.180;2023-07-29T11:54:11;23.00;99.90
13251;DHT22;6692;50.710;7.180;2023-07-29T11:56:12;23.00;99.90
13251;DHT22;6692;50.710;7.180;2023-07-29T11:58:13;23.00;99.90
13251;DHT22;6692;50.710;7.180;2023-07-29T12:00:13;22.90;99.90
13251;DHT22;6692;50.710;7.180;2023-07-29T12:02:15;22.90;99.90
13251;DHT22;6692;50.710;7.180;2023-07-29T12:04:15;23.10;99.90
13251;DHT22;6692;50.710;7.180;2023-07-29T12:06:16;23.30;99.90
13251;DHT22;6692;50.710;7.180;2023-07-29T12:08:17;23.40;99.90
13251;DHT22;6692;50.710;7.180;2023-07-29T12:10:19;23.30;99.90
13251;DHT22;6692;50.710;7.180;2023-07-29T12:12:19;23.30;99.90
13251;DHT22;6692;50.710;7.180;2023-07-29T12:14:21;23.30;99.90
13251;DHT22;6692;50.710;7.180;2023-07-29T12:16:22;23.20;99.90
13251;DHT22;6692;50.710;7.180;2023-07-29T12:18:29;23.20;99.90
13251;DHT22;6692;50.710;7.180;2023-07-29T12:20:23;23.10;99.90
13251;DHT22;6692;50.710;7.180;2023-07-29T12:22:24;22.80;99.90
13251;DHT22;6692;50.710;7.180;2023-07-29T12:24:24;22.40;99.90
13251;DHT22;6692;50.710;7.180;2023-07-29T12:26:29;22.10;99.90
13251;DHT22;6692;50.710;7.180;2023-07-29T12:28:29;21.80;99.90
13251;DHT22;6692;50.710;7.180;2023-07-29T12:30:30;21.60;99.90
13251;DHT22;6692;50.710;7.180;2023-07-29T12:32:31;21.60;99.90
13251;DHT22;6692;50.710;7.180;2023-07-29T12:34:32;21.60;99.90
13251;DHT22;6692;50.710;7.180;2023-07-29T12:36:41;21.50;99.90
13251;DHT22;6692;50.710;7.180;2023-07-29T12:38:42;21.40;99.90
13251;DHT22;6692;50.710;7.180;2023-07-29T12:40:42;21.40;99.90
13251;DHT22;6692;50.710;7.180;2023-07-29T12:42:43;21.40;99.90
13251;DHT22;6692;50.710;7.180;2023-07-29T12:44:43;21.80;99.90
13251;DHT22;6692;50.710;7.180;2023-07-29T12:46:44;22.50;99.90
13251;DHT22;6692;50.710;7.180;2023-07-29T12:48:45;23.90;99.90
13251;DHT22;6692;50.710;7.180;2023-07-29T12:50:46;23.90;99.90
13251;DHT22;6692;50.710;7.180;2023-07-29T12:52:47;24.60;99.90
13251;DHT22;6692;50.710;7.180;2023-07-29T12:54:47;25.50;99.90
13251;DHT22;6692;50.710;7.180;2023-07-29T12:56:49;26.80;99.90
13251;DHT22;6692;50.710;7.180;2023-07-29T12:58:50;26.80;99.90
13251;DHT22;6692;50.710;7.180;2023-07-29T13:00:51;28.00;99.90